Saturday, November 18, 2017, 6:06 PM EST
Back to Local

KPBG, Plattsburgh International Airport

Location: Plattsburgh, NY, United States Lat: 44.65
Local Time: 6:06 PM EST (23:06 GMT) Lon: -73.467
Time Zone: US/Eastern Elev: 239 ft

Show me the last for .
Show Decoded

2017-11-18 16:53 METAR KPBG 182153Z AUTO 16004KT 10SM OVC050 03/M04 A2953 RMK AO2 RAB22E36 SLP003
                 P0000 T00331044 =
2017-11-18 15:53 METAR KPBG 182053Z AUTO 16004KT 10SM OVC050 03/M06 A2955 RMK AO2 SLP010
                 T00331061 56033 =
2017-11-18 14:53 METAR KPBG 181953Z AUTO 20004KT 10SM OVC075 03/M06 A2956 RMK AO2 SLP012
                 T00281061 =
2017-11-18 13:53 METAR KPBG 181853Z AUTO 17006KT 10SM BKN080 OVC095 02/M06 A2959 RMK AO2 SLP024
                 T00221061 =
2017-11-18 12:53 METAR KPBG 181753Z AUTO 16004KT 10SM BKN070 OVC090 02/M07 A2965 RMK AO2 PRESFR
                 SLP044 T00171072 10017 21039 56040 =
2017-11-18 11:53 METAR KPBG 181653Z AUTO 23004KT 10SM OVC110 01/M07 A2968 RMK AO2 SLP055
                 T00111067 =
2017-11-18 10:53 METAR KPBG 181553Z AUTO VRB05KT 10SM SCT120 01/M07 A2972 RMK AO2 SLP069
                 T00061067 =
2017-11-18 09:53 METAR KPBG 181453Z AUTO 16007KT 10SM CLR 00/M06 A2977 RMK AO2 SLP084 T00001061
                 58041 =
2017-11-18 08:53 METAR KPBG 181353Z AUTO VRB04KT 10SM CLR M01/M07 A2981 RMK AO2 SLP099 T10111067
                 =
2017-11-18 07:53 METAR KPBG 181253Z AUTO 20003KT 10SM CLR M03/M08 A2986 RMK AO2 SLP116 T10281083
                 =
2017-11-18 06:53 METAR KPBG 181153Z AUTO 00000KT 10SM BKN120 M03/M08 A2989 RMK AO2 SLP125
                 T10331083 11033 21072 56028 =
2017-11-18 05:53 METAR KPBG 181053Z AUTO 23005KT 10SM BKN120 M04/M08 A2991 RMK AO2 SLP131
                 T10391078 =
2017-11-18 04:53 METAR KPBG 180953Z AUTO VRB03KT 10SM BKN120 M05/M08 A2994 RMK AO2 SLP140
                 T10501083 =
2017-11-18 03:53 METAR KPBG 180853Z AUTO 00000KT 10SM CLR M07/M10 A2998 RMK AO2 SLP154 T10671100
                 58012 =
2017-11-18 02:53 METAR KPBG 180753Z AUTO 26004KT 10SM CLR M06/M10 A3001 RMK AO2 SLP165 T10561100
                 =
2017-11-18 01:53 METAR KPBG 180653Z AUTO 23003KT 10SM CLR M07/M09 A3001 RMK AO2 SLP164 T10671094
                 =
2017-11-18 00:53 METAR KPBG 180553Z AUTO 00000KT 10SM CLR M07/M10 A3001 RMK AO2 SLP166 T10671100
                 11022 21078 58015 =
2017-11-17 23:53 METAR KPBG 180453Z AUTO 00000KT 10SM CLR M07/M11 A3003 RMK AO2 SLP173 T10671106
                 400221078 =
2017-11-17 22:53 METAR KPBG 180353Z AUTO 00000KT 10SM CLR M06/M11 A3004 RMK AO2 SLP177 T10561106
                 =
2017-11-17 21:53 METAR KPBG 180253Z AUTO 00000KT 10SM CLR M07/M11 A3006 RMK AO2 SLP181 T10671106
                 58013 =
2017-11-17 20:53 METAR KPBG 180153Z AUTO 33003KT 10SM CLR M03/M11 A3008 RMK AO2 SLP188 T10331111
                 =
2017-11-17 19:53 METAR KPBG 180053Z AUTO 29003KT 10SM CLR M03/M11 A3009 RMK AO2 SLP193 T10281111
                 =
2017-11-17 18:53 METAR KPBG 172353Z AUTO VRB03KT 10SM CLR M02/M11 A3009 RMK AO2 SLP194 T10221106
                 10011 21039 50010 =

Support USWX by starting your Amazon purchase here.